createdAt,value
2018-06-19T00:00:18.422Z,15.20
2018-06-19T00:02:46.878Z,15.20
2018-06-19T00:05:16.285Z,15.20
2018-06-19T00:07:44.782Z,15.10
2018-06-19T00:10:13.530Z,15.10
2018-06-19T00:12:41.982Z,15.10
2018-06-19T00:15:10.499Z,15.10
2018-06-19T00:17:38.975Z,15.10
2018-06-19T00:20:07.578Z,15.10
2018-06-19T00:22:36.065Z,15.10
2018-06-19T00:25:05.166Z,15.10
2018-06-19T00:27:48.481Z,15.10
2018-06-19T00:30:17.918Z,15.10
2018-06-19T00:32:46.670Z,15.10
2018-06-19T00:35:15.454Z,15.10
2018-06-19T00:37:43.902Z,15.10
2018-06-19T00:40:12.369Z,15.10
2018-06-19T00:42:40.936Z,15.20
2018-06-19T00:45:09.381Z,15.20
2018-06-19T00:47:37.865Z,15.30
2018-06-19T00:50:06.307Z,15.30
2018-06-19T00:52:34.748Z,15.50
2018-06-19T00:55:03.217Z,15.60
2018-06-19T00:57:31.935Z,15.70
2018-06-19T01:00:00.388Z,15.80
2018-06-19T01:02:28.826Z,15.90
2018-06-19T01:04:57.270Z,15.90
2018-06-19T01:07:26.314Z,16.00
2018-06-19T01:09:54.770Z,16.00
2018-06-19T01:12:23.219Z,16.00
2018-06-19T01:14:51.658Z,16.00
2018-06-19T01:17:20.411Z,16.00
2018-06-19T01:19:48.862Z,16.10
2018-06-19T01:22:17.348Z,16.10
2018-06-19T01:24:45.791Z,16.10
2018-06-19T01:27:14.249Z,16.10
2018-06-19T01:29:42.734Z,16.10
2018-06-19T01:32:11.195Z,16.20
2018-06-19T01:34:39.658Z,16.20
2018-06-19T01:37:08.118Z,16.20
2018-06-19T01:39:36.562Z,16.20
2018-06-19T01:42:05.034Z,16.20
2018-06-19T01:44:33.499Z,16.20
2018-06-19T01:47:02.350Z,16.20
2018-06-19T01:49:30.812Z,16.20
2018-06-19T01:51:59.262Z,16.20
2018-06-19T01:54:27.709Z,16.20
2018-06-19T01:56:56.155Z,16.30
2018-06-19T01:59:24.654Z,16.20
2018-06-19T02:01:53.095Z,16.20
2018-06-19T02:04:21.854Z,16.20
2018-06-19T02:06:50.288Z,16.20
2018-06-19T02:09:18.771Z,16.20
2018-06-19T02:11:47.219Z,16.20
2018-06-19T02:14:15.753Z,16.20
2018-06-19T02:16:44.212Z,16.20
2018-06-19T02:19:12.966Z,16.20
2018-06-19T02:21:41.710Z,16.10
2018-06-19T02:24:10.154Z,16.10
2018-06-19T02:26:38.594Z,16.10
2018-06-19T02:31:35.202Z,16.10
2018-06-19T02:34:03.973Z,16.10
2018-06-19T02:36:33.155Z,16.10
2018-06-19T02:39:01.615Z,16.10
2018-06-19T02:41:30.829Z,16.10
2018-06-19T02:43:59.290Z,16.20
2018-06-19T02:46:27.746Z,16.20
2018-06-19T02:48:56.187Z,16.10
2018-06-19T02:51:24.659Z,16.10
2018-06-19T02:53:53.122Z,16.10
2018-06-19T02:56:21.562Z,16.10
2018-06-19T02:58:50.035Z,16.10
2018-06-19T03:01:18.507Z,16.10
2018-06-19T03:03:46.995Z,16.10
2018-06-19T03:06:15.482Z,16.10
2018-06-19T03:08:44.216Z,16.10
2018-06-19T03:11:12.687Z,16.10
2018-06-19T03:13:41.133Z,16.20
2018-06-19T03:16:09.652Z,16.20
2018-06-19T03:18:38.102Z,16.20
2018-06-19T03:21:06.614Z,16.20
2018-06-19T03:23:35.087Z,16.10
2018-06-19T03:26:03.562Z,16.10
2018-06-19T03:28:32.443Z,16.10
2018-06-19T03:31:01.180Z,16.20
2018-06-19T03:35:58.214Z,16.20
2018-06-19T03:38:26.649Z,16.20
2018-06-19T03:40:55.194Z,16.20
2018-06-19T03:43:23.727Z,16.20
2018-06-19T03:45:52.190Z,16.20
2018-06-19T03:48:20.674Z,16.20
2018-06-19T03:50:49.159Z,16.20
2018-06-19T03:53:17.668Z,16.20
2018-06-19T03:55:46.157Z,16.20
2018-06-19T03:58:14.593Z,16.20
2018-06-19T04:00:43.238Z,16.20
2018-06-19T04:03:11.741Z,16.20
2018-06-19T04:05:40.217Z,16.20
2018-06-19T04:08:08.718Z,16.20
2018-06-19T04:10:37.183Z,16.20
2018-06-19T04:13:05.646Z,16.20
2018-06-19T04:15:34.154Z,16.30
2018-06-19T04:18:02.604Z,16.30
2018-06-19T04:20:31.043Z,16.20
2018-06-19T04:22:59.540Z,16.20
2018-06-19T04:25:27.989Z,16.30
2018-06-19T04:27:56.458Z,16.30
2018-06-19T04:30:24.991Z,16.20
2018-06-19T04:32:53.433Z,16.30
2018-06-19T04:35:21.917Z,16.30
2018-06-19T04:37:50.443Z,16.30
2018-06-19T04:40:20.515Z,16.30
2018-06-19T04:42:49.003Z,16.30
2018-06-19T04:45:17.447Z,16.30
2018-06-19T04:47:46.538Z,16.30
2018-06-19T04:50:15.095Z,16.30
2018-06-19T04:52:43.853Z,16.30
2018-06-19T04:55:12.314Z,16.30
2018-06-19T04:57:41.346Z,16.40
2018-06-19T05:00:09.823Z,16.40
2018-06-19T05:02:38.321Z,16.40
2018-06-19T05:05:07.030Z,16.50
2018-06-19T05:07:35.526Z,16.50
2018-06-19T05:10:03.997Z,16.60
2018-06-19T05:12:32.451Z,16.60
2018-06-19T05:15:00.962Z,16.50
2018-06-19T05:17:30.366Z,16.50
2018-06-19T05:19:58.939Z,16.50
2018-06-19T05:22:27.378Z,16.50
2018-06-19T05:24:55.904Z,16.60
2018-06-19T05:27:24.355Z,16.60
2018-06-19T05:29:52.857Z,16.60
2018-06-19T05:32:21.302Z,16.50
2018-06-19T05:34:49.771Z,16.50
2018-06-19T05:37:18.263Z,16.60
2018-06-19T05:39:47.070Z,16.60
2018-06-19T05:42:15.632Z,16.70
2018-06-19T05:44:44.123Z,16.60
2018-06-19T05:47:12.602Z,16.70
2018-06-19T05:49:41.055Z,16.70
2018-06-19T05:52:09.541Z,16.70
2018-06-19T05:54:38.048Z,16.70
2018-06-19T05:57:06.783Z,16.70
2018-06-19T05:59:35.719Z,16.70
2018-06-19T06:02:04.286Z,16.70
2018-06-19T06:04:32.742Z,16.70
2018-06-19T06:07:01.221Z,16.60
2018-06-19T06:09:29.729Z,16.70
2018-06-19T06:11:58.159Z,16.70
2018-06-19T06:14:26.626Z,16.70
2018-06-19T06:16:55.110Z,16.80
2018-06-19T06:19:23.611Z,16.80
2018-06-19T06:21:52.235Z,16.80
2018-06-19T06:24:20.700Z,16.80
2018-06-19T06:26:49.282Z,16.80
2018-06-19T06:29:17.762Z,16.90
2018-06-19T06:31:47.050Z,16.90
2018-06-19T06:36:43.651Z,17.00
2018-06-19T06:39:12.109Z,17.10
2018-06-19T06:41:40.570Z,17.10
2018-06-19T06:44:09.458Z,17.20
2018-06-19T06:46:38.404Z,17.20
2018-06-19T06:49:07.314Z,17.20
2018-06-19T06:51:35.783Z,17.30
2018-06-19T06:54:04.995Z,17.40
2018-06-19T06:56:34.256Z,17.50
2018-06-19T06:59:03.105Z,17.60
2018-06-19T07:01:32.551Z,17.70
2018-06-19T07:04:02.007Z,17.70
2018-06-19T07:06:32.592Z,17.70
2018-06-19T07:09:03.495Z,17.70
2018-06-19T07:11:33.987Z,17.90
2018-06-19T07:14:02.455Z,17.90
2018-06-19T07:16:31.458Z,18.00
2018-06-19T07:19:01.364Z,18.00
2018-06-19T07:21:31.924Z,18.20
2018-06-19T07:24:01.287Z,18.30
2018-06-19T07:26:32.269Z,18.30
2018-06-19T07:29:03.274Z,18.40
2018-06-19T07:31:33.597Z,18.50
2018-06-19T07:34:02.958Z,18.50
2018-06-19T07:36:33.488Z,18.50
2018-06-19T07:39:02.167Z,18.50
2018-06-19T07:41:30.642Z,18.30
2018-06-19T07:44:00.462Z,18.30
2018-06-19T07:46:29.354Z,18.30
2018-06-19T07:48:57.840Z,18.30
2018-06-19T07:51:26.330Z,18.30
2018-06-19T07:53:54.835Z,18.30
2018-06-19T07:56:23.299Z,18.30
2018-06-19T07:58:51.890Z,18.20
2018-06-19T08:01:20.479Z,18.10
2018-06-19T08:03:49.014Z,18.20
2018-06-19T08:06:17.466Z,18.20
2018-06-19T08:08:45.978Z,18.20
2018-06-19T08:11:14.723Z,18.30
2018-06-19T08:13:43.183Z,18.20
2018-06-19T08:16:11.660Z,18.20
2018-06-19T08:18:40.129Z,18.10
2018-06-19T08:21:08.657Z,18.20
2018-06-19T08:23:37.202Z,18.10
2018-06-19T08:26:05.725Z,18.20
2018-06-19T08:28:34.187Z,18.40
2018-06-19T08:31:02.800Z,18.50
2018-06-19T08:33:31.571Z,18.50
2018-06-19T08:36:00.386Z,18.50
2018-06-19T08:38:29.285Z,18.60
2018-06-19T08:40:57.853Z,18.50
2018-06-19T08:43:26.294Z,18.50
2018-06-19T08:45:54.785Z,18.60
2018-06-19T08:48:23.274Z,18.70
2018-06-19T08:50:52.974Z,18.80
2018-06-19T08:53:21.527Z,18.90
2018-06-19T08:55:50.655Z,19.00
2018-06-19T08:58:19.151Z,19.00
2018-06-19T09:00:47.675Z,19.10
2018-06-19T09:03:16.178Z,19.10
2018-06-19T09:05:44.677Z,19.20
2018-06-19T09:08:13.570Z,19.20
2018-06-19T09:10:42.034Z,19.30
2018-06-19T09:13:12.336Z,19.40
2018-06-19T09:15:40.850Z,19.40
2018-06-19T09:18:09.386Z,19.30
2018-06-19T09:20:37.922Z,19.40
2018-06-19T09:23:06.411Z,19.50
2018-06-19T09:25:35.271Z,19.50
2018-06-19T09:28:03.718Z,19.50
2018-06-19T09:30:32.514Z,19.40
2018-06-19T09:33:01.295Z,19.30
2018-06-19T09:35:29.775Z,19.30
2018-06-19T09:37:58.230Z,19.30
2018-06-19T09:40:26.692Z,19.30
2018-06-19T09:42:55.218Z,19.30
2018-06-19T09:45:24.062Z,19.20
2018-06-19T09:47:52.570Z,19.20
2018-06-19T09:50:22.042Z,19.30
2018-06-19T09:52:50.793Z,19.30
2018-06-19T09:55:19.234Z,19.40
2018-06-19T09:57:47.763Z,19.40
2018-06-19T10:00:20.482Z,19.40
2018-06-19T10:02:49.048Z,19.40
2018-06-19T10:05:17.522Z,19.40
2018-06-19T10:07:46.033Z,19.30
2018-06-19T10:10:14.523Z,19.20
2018-06-19T10:12:43.096Z,19.20
2018-06-19T10:15:11.563Z,19.20
2018-06-19T10:17:40.101Z,19.40
2018-06-19T10:20:09.810Z,19.50
2018-06-19T10:22:38.310Z,19.40
2018-06-19T10:25:06.795Z,19.40
2018-06-19T10:27:35.409Z,19.40
2018-06-19T10:30:03.943Z,19.30
2018-06-19T10:32:33.311Z,19.20
2018-06-19T10:35:01.921Z,19.20
2018-06-19T10:37:31.258Z,19.20
2018-06-19T10:40:00.740Z,19.20
2018-06-19T10:42:29.170Z,19.20
2018-06-19T10:44:57.641Z,19.30
2018-06-19T10:47:26.313Z,19.20
2018-06-19T10:49:54.878Z,19.30
2018-06-19T10:52:23.742Z,19.40
2018-06-19T10:54:52.551Z,19.50
2018-06-19T10:57:21.026Z,19.60
2018-06-19T10:59:49.531Z,19.70
2018-06-19T11:02:18.257Z,19.90
2018-06-19T11:04:46.735Z,19.90
2018-06-19T11:07:15.291Z,20.00
2018-06-19T11:09:43.986Z,20.10
2018-06-19T11:12:12.437Z,20.30
2018-06-19T11:14:41.851Z,20.40
2018-06-19T11:17:10.319Z,20.70
2018-06-19T11:19:39.793Z,20.90
2018-06-19T11:22:08.788Z,21.10
2018-06-19T11:24:37.289Z,21.30
2018-06-19T11:27:06.090Z,21.40
2018-06-19T11:29:37.303Z,21.40
2018-06-19T11:32:06.232Z,21.40
2018-06-19T11:34:34.900Z,21.40
2018-06-19T11:37:03.386Z,21.40
2018-06-19T11:39:31.902Z,21.70
2018-06-19T11:42:00.548Z,21.90
2018-06-19T11:44:29.182Z,22.00
2018-06-19T11:46:57.650Z,22.10
2018-06-19T11:49:26.120Z,22.20
2018-06-19T11:51:56.086Z,22.10
2018-06-19T11:54:25.038Z,22.00
2018-06-19T11:56:53.554Z,22.10
2018-06-19T11:59:22.299Z,22.30
2018-06-19T12:01:50.875Z,22.20
2018-06-19T12:04:19.538Z,22.10
2018-06-19T12:06:48.166Z,21.80
2018-06-19T12:09:16.814Z,21.80
2018-06-19T12:11:45.362Z,21.70
2018-06-19T12:14:13.865Z,21.70
2018-06-19T12:16:42.428Z,21.70
2018-06-19T12:19:11.111Z,21.60
2018-06-19T12:21:40.461Z,21.30
2018-06-19T12:24:09.601Z,21.10
2018-06-19T12:26:40.085Z,21.10
2018-06-19T12:29:09.516Z,21.00
2018-06-19T12:31:38.488Z,21.20
2018-06-19T12:34:07.686Z,21.40
2018-06-19T12:36:36.254Z,21.60
2018-06-19T12:39:09.287Z,21.80
2018-06-19T12:41:41.351Z,21.90
2018-06-19T12:44:11.074Z,21.90
2018-06-19T12:46:41.233Z,22.10
2018-06-19T12:49:10.663Z,22.30
2018-06-19T12:51:56.520Z,22.20
2018-06-19T12:56:44.219Z,22.30
2018-06-19T12:59:13.327Z,22.40
2018-06-19T13:01:43.163Z,22.60
2018-06-19T13:04:22.902Z,22.60
2018-06-19T13:06:51.396Z,22.50
2018-06-19T13:09:22.407Z,22.40
2018-06-19T13:11:52.710Z,22.30
2018-06-19T13:14:32.527Z,22.40
2018-06-19T13:17:13.247Z,22.60
2018-06-19T13:19:53.497Z,22.70
2018-06-19T13:22:21.993Z,22.80
2018-06-19T13:24:50.904Z,22.80
2018-06-19T13:27:20.699Z,22.80
2018-06-19T13:30:02.172Z,22.70
2018-06-19T13:32:31.668Z,22.80
2018-06-19T13:35:01.070Z,22.90
2018-06-19T13:37:31.275Z,23.00
2018-06-19T13:41:25.761Z,23.10
2018-06-19T13:44:07.222Z,23.20
2018-06-19T13:46:35.802Z,23.10
2018-06-19T13:49:08.394Z,23.10
2018-06-19T13:51:38.379Z,23.10
2018-06-19T13:54:06.963Z,23.00
2018-06-19T13:58:15.513Z,23.10
2018-06-19T14:00:45.399Z,23.20
2018-06-19T14:03:13.937Z,23.00
2018-06-19T14:05:42.476Z,22.90
2018-06-19T14:08:16.767Z,22.70
2018-06-19T14:10:56.677Z,22.40
2018-06-19T14:13:26.106Z,22.40
2018-06-19T14:15:55.738Z,22.10
2018-06-19T14:18:27.039Z,22.10
2018-06-19T14:20:55.736Z,21.90
2018-06-19T14:23:24.971Z,21.90
2018-06-19T14:25:53.550Z,21.80
2018-06-19T14:28:22.062Z,21.80
2018-06-19T14:30:51.454Z,21.80
2018-06-19T14:33:20.042Z,21.90
2018-06-19T14:35:48.561Z,21.90
2018-06-19T14:38:17.082Z,21.90
2018-06-19T14:40:47.099Z,21.90
2018-06-19T14:43:17.999Z,21.90
2018-06-19T14:45:46.985Z,21.70
2018-06-19T14:48:16.666Z,21.60
2018-06-19T14:50:48.220Z,21.50
2018-06-19T14:53:19.223Z,21.40
2018-06-19T14:55:49.478Z,21.20
2018-06-19T14:58:19.267Z,21.10
2018-06-19T15:00:49.063Z,21.00
2018-06-19T15:03:19.092Z,20.90
2018-06-19T15:05:50.144Z,20.80
2018-06-19T15:08:20.111Z,20.70
2018-06-19T15:10:49.985Z,20.70
2018-06-19T15:13:20.662Z,20.60
2018-06-19T15:15:51.378Z,20.60
2018-06-19T15:18:22.113Z,20.50
2018-06-19T15:20:51.872Z,20.60
2018-06-19T15:23:20.825Z,20.70
2018-06-19T15:25:54.050Z,20.80
2018-06-19T15:28:23.091Z,20.90
2018-06-19T15:30:52.295Z,21.10
2018-06-19T15:33:21.771Z,21.30
2018-06-19T15:35:50.770Z,21.30
2018-06-19T15:38:19.557Z,21.50
2018-06-19T15:40:48.027Z,21.60
2018-06-19T15:43:17.032Z,21.50
2018-06-19T15:45:45.510Z,21.50
2018-06-19T15:48:14.754Z,21.40
2018-06-19T15:50:43.228Z,21.30
2018-06-19T15:53:12.531Z,21.30
2018-06-19T15:55:41.404Z,21.10
2018-06-19T15:58:09.886Z,21.00
2018-06-19T16:00:38.367Z,20.90
2018-06-19T16:03:11.779Z,20.90
2018-06-19T16:05:40.265Z,20.90
2018-06-19T16:08:14.039Z,20.90
2018-06-19T16:10:42.743Z,20.90
2018-06-19T16:13:11.298Z,21.00
2018-06-19T16:15:39.771Z,21.10
2018-06-19T16:18:08.342Z,21.20
2018-06-19T16:20:36.850Z,21.30
2018-06-19T16:23:05.778Z,21.20
2018-06-19T16:25:34.487Z,21.30
2018-06-19T16:28:03.038Z,21.20
2018-06-19T16:30:31.502Z,21.20
2018-06-19T16:33:00.658Z,21.10
2018-06-19T16:35:29.130Z,20.90
2018-06-19T16:37:57.646Z,20.70
2018-06-19T16:40:26.127Z,20.50
2018-06-19T16:42:54.731Z,20.40
2018-06-19T16:45:23.422Z,20.20
2018-06-19T16:47:52.943Z,20.10
2018-06-19T16:50:21.816Z,20.10
2018-06-19T16:52:50.262Z,20.00
2018-06-19T16:55:19.499Z,20.00
2018-06-19T16:57:48.122Z,19.90
2018-06-19T17:00:20.003Z,19.90
2018-06-19T17:02:48.481Z,19.90
2018-06-19T17:05:16.934Z,19.90
2018-06-19T17:07:45.420Z,19.80
2018-06-19T17:10:14.562Z,19.80
2018-06-19T17:12:43.602Z,19.80
2018-06-19T17:15:12.147Z,19.80
2018-06-19T17:17:40.603Z,19.90
2018-06-19T17:20:09.185Z,19.90
2018-06-19T17:22:37.704Z,20.00
2018-06-19T17:25:06.555Z,20.10
2018-06-19T17:27:36.083Z,20.10
2018-06-19T17:30:04.802Z,20.20
2018-06-19T17:32:33.394Z,20.10
2018-06-19T17:35:01.863Z,20.10
2018-06-19T17:37:30.322Z,20.00
2018-06-19T17:39:59.779Z,20.00
2018-06-19T17:42:28.240Z,19.90
2018-06-19T17:44:56.710Z,19.90
2018-06-19T17:47:25.209Z,19.80
2018-06-19T17:49:53.666Z,19.80
2018-06-19T17:52:22.118Z,19.80
2018-06-19T17:54:50.741Z,19.80
2018-06-19T17:57:19.544Z,19.70
2018-06-19T17:59:47.989Z,19.70
2018-06-19T18:02:16.431Z,19.60
2018-06-19T18:04:45.210Z,19.60
2018-06-19T18:07:13.669Z,19.60
2018-06-19T18:09:42.114Z,19.60
2018-06-19T18:12:10.570Z,19.60
2018-06-19T18:14:39.093Z,19.50
2018-06-19T18:19:36.287Z,19.50
2018-06-19T18:22:04.827Z,19.50
2018-06-19T18:24:33.271Z,19.50
2018-06-19T18:27:01.733Z,19.50
2018-06-19T18:29:30.174Z,19.50
2018-06-19T18:31:58.639Z,19.50
2018-06-19T18:34:27.498Z,19.40
2018-06-19T18:36:55.987Z,19.40
2018-06-19T18:39:24.443Z,19.40
2018-06-19T18:41:52.875Z,19.40
2018-06-19T18:44:21.325Z,19.40
2018-06-19T18:46:49.849Z,19.40
2018-06-19T18:49:19.042Z,19.40
2018-06-19T18:51:47.916Z,19.40
2018-06-19T18:54:16.345Z,19.50
2018-06-19T18:56:44.798Z,19.40
2018-06-19T18:59:13.253Z,19.40
2018-06-19T19:01:41.689Z,19.40
2018-06-19T19:04:10.158Z,19.40
2018-06-19T19:06:38.643Z,19.30
2018-06-19T19:09:09.659Z,19.30
2018-06-19T19:11:38.116Z,19.30
2018-06-19T19:14:06.605Z,19.20
2018-06-19T19:16:40.403Z,19.20
2018-06-19T19:19:11.570Z,19.20
2018-06-19T19:21:40.727Z,19.20
2018-06-19T19:24:09.319Z,19.20
2018-06-19T19:26:43.275Z,19.10
2018-06-19T19:29:16.992Z,19.10
2018-06-19T19:31:48.524Z,19.10
2018-06-19T19:34:17.299Z,19.10
2018-06-19T19:36:51.039Z,19.00
2018-06-19T19:39:25.317Z,19.00
2018-06-19T19:41:54.151Z,19.00
2018-06-19T19:44:23.691Z,18.90
2018-06-19T19:46:58.325Z,18.90
2018-06-19T19:49:26.950Z,18.80
2018-06-19T19:51:55.448Z,18.80
2018-06-19T19:54:24.536Z,18.80
2018-06-19T19:56:58.328Z,18.70
2018-06-19T19:59:27.064Z,18.70
2018-06-19T20:01:55.570Z,18.70
2018-06-19T20:04:24.055Z,18.60
2018-06-19T20:06:52.554Z,18.60
2018-06-19T20:09:21.026Z,18.60
2018-06-19T20:11:49.916Z,18.60
2018-06-19T20:14:18.567Z,18.60
2018-06-19T20:16:47.396Z,18.60
2018-06-19T20:19:15.846Z,18.60
2018-06-19T20:21:44.313Z,18.60
2018-06-19T20:24:13.219Z,18.50
2018-06-19T20:26:41.694Z,18.60
2018-06-19T20:29:10.212Z,18.50
2018-06-19T20:31:38.798Z,18.50
2018-06-19T20:34:07.270Z,18.50
2018-06-19T20:36:35.706Z,18.50
2018-06-19T20:39:06.243Z,18.50
2018-06-19T20:41:34.691Z,18.50
2018-06-19T20:44:03.185Z,18.40
2018-06-19T20:46:32.098Z,18.40
2018-06-19T20:49:00.584Z,18.40
2018-06-19T20:51:29.067Z,18.40
2018-06-19T20:53:57.861Z,18.40
2018-06-19T20:56:26.552Z,18.40
2018-06-19T20:58:55.014Z,18.50
2018-06-19T21:01:23.526Z,18.40
2018-06-19T21:03:52.002Z,18.40
2018-06-19T21:06:20.482Z,18.40
2018-06-19T21:08:48.929Z,18.50
2018-06-19T21:11:17.402Z,18.40
2018-06-19T21:13:45.918Z,18.40
2018-06-19T21:16:14.510Z,18.40
2018-06-19T21:18:43.381Z,18.40
2018-06-19T21:21:11.898Z,18.40
2018-06-19T21:23:40.367Z,18.40
2018-06-19T21:26:08.850Z,18.40
2018-06-19T21:28:37.682Z,18.40
2018-06-19T21:31:06.169Z,18.40
2018-06-19T21:33:34.651Z,18.40
2018-06-19T21:36:03.536Z,18.40
2018-06-19T21:38:32.143Z,18.40
2018-06-19T21:41:00.594Z,18.40
2018-06-19T21:43:29.055Z,18.30
2018-06-19T21:45:57.498Z,18.30
2018-06-19T21:48:25.963Z,18.30
2018-06-19T21:50:54.423Z,18.30
2018-06-19T21:53:22.898Z,18.30
2018-06-19T21:55:51.808Z,18.30
2018-06-19T21:58:20.344Z,18.30
2018-06-19T22:00:48.835Z,18.30
2018-06-19T22:03:17.555Z,18.30
2018-06-19T22:05:46.027Z,18.30
2018-06-19T22:08:14.519Z,18.30
2018-06-19T22:10:43.367Z,18.20
2018-06-19T22:13:12.170Z,18.20
2018-06-19T22:15:40.636Z,18.20
2018-06-19T22:18:09.129Z,18.30
2018-06-19T22:20:37.582Z,18.20
2018-06-19T22:23:06.106Z,18.20
2018-06-19T22:25:34.596Z,18.20
2018-06-19T22:28:03.045Z,18.20
2018-06-19T22:30:31.500Z,18.20
2018-06-19T22:32:59.959Z,18.20
2018-06-19T22:35:28.437Z,18.20
2018-06-19T22:37:57.094Z,18.20
2018-06-19T22:40:25.618Z,18.20
2018-06-19T22:42:54.074Z,18.20
2018-06-19T22:45:22.902Z,18.20
2018-06-19T22:47:51.370Z,18.10
2018-06-19T22:50:19.998Z,18.10
2018-06-19T22:52:48.452Z,18.10
2018-06-19T22:55:16.907Z,18.10
2018-06-19T22:57:45.386Z,18.10
2018-06-19T23:00:13.986Z,18.10
2018-06-19T23:02:42.458Z,18.10
2018-06-19T23:05:10.951Z,18.10
2018-06-19T23:07:39.439Z,18.10
2018-06-19T23:10:07.930Z,18.10
2018-06-19T23:12:36.511Z,18.10
2018-06-19T23:15:05.081Z,18.10
2018-06-19T23:17:33.564Z,18.10
2018-06-19T23:20:02.147Z,18.10
2018-06-19T23:22:30.624Z,18.10
2018-06-19T23:24:59.131Z,18.10
2018-06-19T23:27:27.701Z,18.10
2018-06-19T23:29:56.215Z,18.10
2018-06-19T23:32:24.701Z,18.10
2018-06-19T23:34:53.191Z,18.10
2018-06-19T23:37:21.666Z,18.10
2018-06-19T23:39:50.198Z,18.10
2018-06-19T23:42:18.866Z,18.10
2018-06-19T23:44:47.329Z,18.10
2018-06-19T23:47:15.832Z,18.10
2018-06-19T23:49:44.310Z,18.10
2018-06-19T23:52:13.118Z,18.10
2018-06-19T23:57:09.758Z,18.10
2018-06-19T23:59:38.243Z,18.10
